createdAt,value
2022-07-27T00:01:18.991Z,16.90
2022-07-27T00:03:47.657Z,16.88
2022-07-27T00:06:16.029Z,16.87
2022-07-27T00:08:44.041Z,16.87
2022-07-27T00:11:14.132Z,16.88
2022-07-27T00:13:42.311Z,16.90
2022-07-27T00:16:10.526Z,16.90
2022-07-27T00:18:38.705Z,16.94
2022-07-27T00:21:07.005Z,17.01
2022-07-27T00:23:35.019Z,17.11
2022-07-27T00:26:03.096Z,17.17
2022-07-27T00:28:31.012Z,17.18
2022-07-27T00:30:59.293Z,17.19
2022-07-27T00:33:27.419Z,17.22
2022-07-27T00:35:55.740Z,17.28
2022-07-27T00:38:23.653Z,17.28
2022-07-27T00:40:51.610Z,17.30
2022-07-27T00:43:20.091Z,17.33
2022-07-27T00:45:48.122Z,17.33
2022-07-27T00:48:16.091Z,17.33
2022-07-27T00:50:46.349Z,17.34
2022-07-27T00:53:14.883Z,17.34
2022-07-27T00:55:42.983Z,17.31
2022-07-27T00:58:11.069Z,17.29
2022-07-27T01:00:39.180Z,17.31
2022-07-27T01:03:08.768Z,17.32
2022-07-27T01:05:42.571Z,17.36
2022-07-27T01:08:15.244Z,17.36
2022-07-27T01:10:44.820Z,17.36
2022-07-27T01:13:16.051Z,17.40
2022-07-27T01:15:44.773Z,17.40
2022-07-27T01:18:27.266Z,17.43
2022-07-27T01:20:56.933Z,17.43
2022-07-27T01:23:25.973Z,17.44
2022-07-27T01:25:55.166Z,17.42
2022-07-27T01:28:23.660Z,17.43
2022-07-27T01:30:53.450Z,17.39
2022-07-27T01:33:28.136Z,17.38
2022-07-27T01:35:57.976Z,17.40
2022-07-27T01:38:26.771Z,17.41
2022-07-27T01:40:55.715Z,17.41
2022-07-27T01:43:24.293Z,17.39
2022-07-27T01:45:52.365Z,17.38
2022-07-27T01:48:21.148Z,17.37
2022-07-27T01:50:51.264Z,17.35
2022-07-27T01:53:21.201Z,17.31
2022-07-27T01:55:51.011Z,17.29
2022-07-27T01:58:19.391Z,17.27
2022-07-27T02:00:49.139Z,17.24
2022-07-27T02:03:17.250Z,17.22
2022-07-27T02:05:45.245Z,17.19
2022-07-27T02:08:13.742Z,17.17
2022-07-27T02:11:04.030Z,17.18
2022-07-27T02:13:31.949Z,17.14
2022-07-27T02:16:00.572Z,17.13
2022-07-27T02:18:33.561Z,17.07
2022-07-27T02:21:06.409Z,17.04
2022-07-27T02:23:54.452Z,16.99
2022-07-27T02:26:22.510Z,16.98
2022-07-27T02:28:50.543Z,16.92
2022-07-27T02:31:18.713Z,16.87
2022-07-27T02:33:46.549Z,16.81
2022-07-27T02:36:14.447Z,16.82
2022-07-27T02:38:42.321Z,16.83
2022-07-27T02:41:10.232Z,16.78
2022-07-27T02:43:38.135Z,16.83
2022-07-27T02:46:06.252Z,16.80
2022-07-27T02:48:34.151Z,16.75
2022-07-27T02:51:02.240Z,16.74
2022-07-27T02:53:30.866Z,16.73
2022-07-27T02:55:58.880Z,16.74
2022-07-27T02:58:26.858Z,16.75
2022-07-27T03:00:58.310Z,16.75
2022-07-27T03:03:36.523Z,16.77
2022-07-27T03:06:15.719Z,16.81
2022-07-27T03:08:43.729Z,16.85
2022-07-27T03:11:11.598Z,16.91
2022-07-27T03:13:39.485Z,16.95
2022-07-27T03:16:08.082Z,17.02
2022-07-27T03:18:36.210Z,17.06
2022-07-27T03:21:04.695Z,17.11
2022-07-27T03:23:34.824Z,17.13
2022-07-27T03:26:02.710Z,17.14
2022-07-27T03:28:30.525Z,17.12
2022-07-27T03:30:58.834Z,17.18
2022-07-27T03:33:26.777Z,17.16
2022-07-27T03:35:54.653Z,17.18
2022-07-27T03:38:23.436Z,17.17
2022-07-27T03:40:52.043Z,17.20
2022-07-27T03:43:19.885Z,17.25
2022-07-27T03:45:48.059Z,17.26
2022-07-27T03:48:15.942Z,17.26
2022-07-27T03:50:43.898Z,17.29
2022-07-27T03:53:12.350Z,17.30
2022-07-27T03:55:40.319Z,17.31
2022-07-27T03:58:08.207Z,17.29
2022-07-27T04:00:36.068Z,17.34
2022-07-27T04:03:04.240Z,17.40
2022-07-27T04:05:32.241Z,17.41
2022-07-27T04:08:00.155Z,17.44
2022-07-27T04:10:31.475Z,17.42
2022-07-27T04:13:00.144Z,17.40
2022-07-27T04:15:29.501Z,17.34
2022-07-27T04:17:57.876Z,17.41
2022-07-27T04:20:26.268Z,17.40
2022-07-27T04:22:54.608Z,17.41
2022-07-27T04:25:23.337Z,17.40
2022-07-27T04:27:51.372Z,17.35
2022-07-27T04:30:19.475Z,17.34
2022-07-27T04:32:47.980Z,17.29
2022-07-27T04:35:16.440Z,17.24
2022-07-27T04:37:59.142Z,17.15
2022-07-27T04:40:35.088Z,17.12
2022-07-27T04:43:05.074Z,17.14
2022-07-27T04:45:33.557Z,17.22
2022-07-27T04:48:08.884Z,17.36
2022-07-27T04:50:44.123Z,17.54
2022-07-27T04:53:13.509Z,17.75
2022-07-27T04:55:43.426Z,17.92
2022-07-27T04:58:12.298Z,18.03
2022-07-27T05:00:40.353Z,18.09
2022-07-27T05:03:08.426Z,18.04
2022-07-27T05:05:36.842Z,17.93
2022-07-27T05:08:05.194Z,17.83
2022-07-27T05:10:33.162Z,17.70
2022-07-27T05:13:01.799Z,17.65
2022-07-27T05:15:30.209Z,17.67
2022-07-27T05:18:19.186Z,17.70
2022-07-27T05:20:47.375Z,17.76
2022-07-27T05:23:18.489Z,17.79
2022-07-27T05:25:46.668Z,17.84
2022-07-27T05:28:14.793Z,17.93
2022-07-27T05:30:42.818Z,17.97
2022-07-27T05:33:10.780Z,18.05
2022-07-27T05:35:38.764Z,18.21
2022-07-27T05:38:07.045Z,18.27
2022-07-27T05:40:35.152Z,18.39
2022-07-27T05:43:03.165Z,18.46
2022-07-27T05:45:31.117Z,18.60
2022-07-27T05:48:00.000Z,18.85
2022-07-27T05:50:28.105Z,19.42
2022-07-27T05:52:58.915Z,20.19
2022-07-27T05:55:27.070Z,20.91
2022-07-27T05:57:55.791Z,21.55
2022-07-27T06:00:23.801Z,22.20
2022-07-27T06:02:52.044Z,22.57
2022-07-27T06:05:20.269Z,22.70
2022-07-27T06:08:00.621Z,23.01
2022-07-27T06:10:32.558Z,23.50
2022-07-27T06:13:03.499Z,23.61
2022-07-27T06:15:31.651Z,23.81
2022-07-27T06:17:59.602Z,23.89
2022-07-27T06:20:27.746Z,23.85
2022-07-27T06:23:00.625Z,24.00
2022-07-27T06:25:35.226Z,24.21
2022-07-27T06:28:06.238Z,24.42
2022-07-27T06:30:34.554Z,24.78
2022-07-27T06:33:06.895Z,24.94
2022-07-27T06:35:38.916Z,25.11
2022-07-27T06:38:09.635Z,25.38
2022-07-27T06:40:37.971Z,25.74
2022-07-27T06:43:06.082Z,25.90
2022-07-27T06:45:34.172Z,26.13
2022-07-27T06:48:02.340Z,26.30
2022-07-27T06:50:30.430Z,26.41
2022-07-27T06:52:58.560Z,26.51
2022-07-27T06:55:26.944Z,26.54
2022-07-27T06:57:55.456Z,26.57
2022-07-27T07:00:23.865Z,26.70
2022-07-27T07:03:04.796Z,26.73
2022-07-27T07:05:38.460Z,26.75
2022-07-27T07:08:11.930Z,26.76
2022-07-27T07:10:42.054Z,26.87
2022-07-27T07:13:10.427Z,27.09
2022-07-27T07:15:41.017Z,27.26
2022-07-27T07:18:11.675Z,27.36
2022-07-27T07:20:40.700Z,27.49
2022-07-27T07:23:09.719Z,27.68
2022-07-27T07:25:39.537Z,27.82
2022-07-27T07:28:08.199Z,27.92
2022-07-27T07:30:36.658Z,27.96
2022-07-27T07:33:05.255Z,27.61
2022-07-27T07:35:33.554Z,27.59
2022-07-27T07:38:01.423Z,27.92
2022-07-27T07:40:43.331Z,28.24
2022-07-27T07:43:14.156Z,28.62
2022-07-27T07:45:47.388Z,28.78
2022-07-27T07:48:21.910Z,28.64
2022-07-27T07:50:53.471Z,28.03
2022-07-27T07:53:24.798Z,28.39
2022-07-27T07:55:57.646Z,28.96
2022-07-27T07:58:25.659Z,28.95
2022-07-27T08:00:53.625Z,29.08
2022-07-27T08:03:22.447Z,28.56
2022-07-27T08:05:51.715Z,28.51
2022-07-27T08:08:19.910Z,29.02
2022-07-27T08:10:52.780Z,29.42
2022-07-27T08:13:22.505Z,29.95
2022-07-27T08:15:52.922Z,30.37
2022-07-27T08:18:21.412Z,30.47
2022-07-27T08:20:49.751Z,30.79
2022-07-27T08:23:17.866Z,31.00
2022-07-27T08:25:46.638Z,31.17
2022-07-27T08:28:15.183Z,31.14
2022-07-27T08:30:44.796Z,31.36
2022-07-27T08:33:13.052Z,31.57
2022-07-27T08:35:41.298Z,31.51
2022-07-27T08:38:09.938Z,31.44
2022-07-27T08:40:42.215Z,31.98
2022-07-27T08:43:21.800Z,32.13
2022-07-27T08:45:56.367Z,32.15
2022-07-27T08:48:26.532Z,32.62
2022-07-27T08:50:55.861Z,32.97
2022-07-27T08:53:25.660Z,32.82
2022-07-27T08:55:57.159Z,32.51
2022-07-27T08:58:25.129Z,31.22
2022-07-27T09:00:53.456Z,30.54
2022-07-27T09:03:23.463Z,31.04
2022-07-27T09:05:55.977Z,31.32
2022-07-27T09:08:30.944Z,31.66
2022-07-27T09:11:01.154Z,31.54
2022-07-27T09:13:32.170Z,31.57
2022-07-27T09:16:19.730Z,32.25
2022-07-27T09:18:49.237Z,31.81
2022-07-27T09:21:23.412Z,31.94
2022-07-27T09:23:53.474Z,31.22
2022-07-27T09:26:32.418Z,30.94
2022-07-27T09:29:14.633Z,31.14
2022-07-27T09:31:48.871Z,32.12
2022-07-27T09:34:32.042Z,31.59
2022-07-27T09:37:05.660Z,32.59
2022-07-27T09:39:34.496Z,32.85
2022-07-27T09:42:03.006Z,31.86
2022-07-27T09:44:42.465Z,30.92
2022-07-27T09:47:28.007Z,30.66
2022-07-27T09:50:17.824Z,30.77
2022-07-27T09:52:47.194Z,31.63
2022-07-27T09:55:19.815Z,30.46
2022-07-27T09:57:56.228Z,30.09
2022-07-27T10:00:26.405Z,31.04
2022-07-27T10:02:55.676Z,31.69
2022-07-27T10:05:24.292Z,31.47
2022-07-27T10:07:54.737Z,31.57
2022-07-27T10:10:23.733Z,32.34
2022-07-27T10:12:55.655Z,31.55
2022-07-27T10:15:25.263Z,30.61
2022-07-27T10:18:01.766Z,30.77
2022-07-27T10:20:31.958Z,31.28
2022-07-27T10:23:00.353Z,30.43
2022-07-27T10:25:37.552Z,31.25
2022-07-27T10:28:20.979Z,31.37
2022-07-27T10:30:54.250Z,32.09
2022-07-27T10:33:54.474Z,32.18
2022-07-27T10:36:31.469Z,31.13
2022-07-27T10:39:07.341Z,30.14
2022-07-27T10:41:40.450Z,31.14
2022-07-27T10:44:23.924Z,31.65
2022-07-27T10:47:02.173Z,31.26
2022-07-27T10:49:40.293Z,31.55
2022-07-27T10:52:49.238Z,30.70
2022-07-27T10:55:32.806Z,29.34
2022-07-27T10:58:03.312Z,29.42
2022-07-27T11:00:55.754Z,29.09
2022-07-27T11:03:29.260Z,29.09
2022-07-27T11:11:50.106Z,29.63
2022-07-27T11:14:19.392Z,30.75
2022-07-27T11:17:47.320Z,32.08
2022-07-27T11:20:04.372Z,32.17
2022-07-27T11:25:30.123Z,31.47
2022-07-27T11:27:58.237Z,31.08
2022-07-27T11:30:28.703Z,31.33
2022-07-27T11:32:56.824Z,31.71
2022-07-27T11:35:24.928Z,32.34
2022-07-27T11:38:01.443Z,32.95
2022-07-27T11:41:07.035Z,32.60
2022-07-27T11:43:45.105Z,33.02
2022-07-27T11:46:26.870Z,33.03
2022-07-27T11:49:16.727Z,32.43
2022-07-27T11:51:48.173Z,32.46
2022-07-27T11:54:31.339Z,33.96
2022-07-27T11:57:06.081Z,34.78
2022-07-27T11:59:39.628Z,34.24
2022-07-27T12:02:20.131Z,33.82
2022-07-27T12:04:51.101Z,32.54
2022-07-27T12:07:30.859Z,31.77
2022-07-27T12:10:04.728Z,31.05
2022-07-27T12:12:35.406Z,30.32
2022-07-27T12:15:44.197Z,29.69
2022-07-27T12:18:03.730Z,29.50
2022-07-27T12:20:34.049Z,29.31
2022-07-27T12:23:09.444Z,29.03
2022-07-27T12:25:39.244Z,29.15
2022-07-27T12:28:11.299Z,29.24
2022-07-27T12:30:42.467Z,29.34
2022-07-27T12:33:28.521Z,30.03
2022-07-27T12:35:57.934Z,30.82
2022-07-27T12:38:37.877Z,32.93
2022-07-27T12:41:06.077Z,33.23
2022-07-27T12:43:34.228Z,32.72
2022-07-27T12:46:13.149Z,32.31
2022-07-27T12:48:43.091Z,31.40
2022-07-27T12:51:11.451Z,30.19
2022-07-27T12:53:39.704Z,29.18
2022-07-27T12:56:10.750Z,29.21
2022-07-27T12:58:38.795Z,29.58
2022-07-27T13:01:07.069Z,30.55
2022-07-27T13:03:37.047Z,31.05
2022-07-27T13:06:10.818Z,30.55
2022-07-27T13:08:41.077Z,30.24
2022-07-27T13:11:09.266Z,29.93
2022-07-27T13:13:37.380Z,29.78
2022-07-27T13:16:05.783Z,29.44
2022-07-27T13:18:33.816Z,29.93
2022-07-27T13:21:01.990Z,29.92
2022-07-27T13:23:30.175Z,30.20
2022-07-27T13:25:58.241Z,31.70
2022-07-27T13:28:26.273Z,31.83
2022-07-27T13:30:54.937Z,31.30
2022-07-27T13:33:23.065Z,30.68
2022-07-27T13:35:59.017Z,30.05
2022-07-27T13:38:29.724Z,29.90
2022-07-27T13:40:57.687Z,30.37
2022-07-27T13:43:25.718Z,29.81
2022-07-27T13:45:53.878Z,29.13
2022-07-27T13:48:22.309Z,29.42
2022-07-27T13:50:50.396Z,30.27
2022-07-27T13:53:19.235Z,30.43
2022-07-27T13:55:47.858Z,31.04
2022-07-27T13:58:15.939Z,32.69
2022-07-27T14:00:44.184Z,32.41
2022-07-27T14:03:12.407Z,30.73
2022-07-27T14:05:49.147Z,29.40
2022-07-27T14:08:21.582Z,28.83
2022-07-27T14:10:51.180Z,29.97
2022-07-27T14:13:22.908Z,30.82
2022-07-27T14:15:54.451Z,30.88
2022-07-27T14:18:28.371Z,30.66
2022-07-27T14:21:04.751Z,31.12
2022-07-27T14:23:35.120Z,31.11
2022-07-27T14:26:05.662Z,30.66
2022-07-27T14:28:34.796Z,30.98
2022-07-27T14:31:06.662Z,31.93
2022-07-27T14:33:36.945Z,30.62
2022-07-27T14:36:06.923Z,29.30
2022-07-27T14:38:37.420Z,29.77
2022-07-27T14:41:06.028Z,30.97
2022-07-27T14:43:34.362Z,32.76
2022-07-27T14:46:02.359Z,33.42
2022-07-27T14:49:03.262Z,32.92
2022-07-27T14:51:18.679Z,32.07
2022-07-27T14:53:46.747Z,32.70
2022-07-27T14:56:15.190Z,32.23
2022-07-27T14:58:43.685Z,29.91
2022-07-27T15:01:12.080Z,28.31
2022-07-27T15:03:40.180Z,27.52
2022-07-27T15:06:08.330Z,27.36
2022-07-27T15:08:36.394Z,27.37
2022-07-27T15:11:04.452Z,28.07
2022-07-27T15:13:32.652Z,30.57
2022-07-27T15:16:00.725Z,32.67
2022-07-27T15:18:32.771Z,32.32
2022-07-27T15:21:03.286Z,31.17
2022-07-27T15:23:42.228Z,30.72
2022-07-27T15:26:12.024Z,29.77
2022-07-27T15:28:42.175Z,28.98
2022-07-27T15:31:11.233Z,28.53
2022-07-27T15:33:39.372Z,28.68
2022-07-27T15:36:07.572Z,28.84
2022-07-27T15:38:36.530Z,28.62
2022-07-27T15:41:05.144Z,28.28
2022-07-27T15:43:34.795Z,28.42
2022-07-27T15:46:03.630Z,28.25
2022-07-27T15:48:32.213Z,28.10
2022-07-27T15:51:00.247Z,27.96
2022-07-27T15:53:29.423Z,27.74
2022-07-27T15:55:58.395Z,27.27
2022-07-27T15:58:26.616Z,26.86
2022-07-27T16:00:58.063Z,26.44
2022-07-27T16:03:28.224Z,26.61
2022-07-27T16:05:58.017Z,26.40
2022-07-27T16:08:27.534Z,26.08
2022-07-27T16:10:55.454Z,26.03
2022-07-27T16:13:25.517Z,25.57
2022-07-27T16:16:12.577Z,25.41
2022-07-27T16:18:40.762Z,25.85
2022-07-27T16:21:08.896Z,26.25
2022-07-27T16:23:36.882Z,26.85
2022-07-27T16:26:06.694Z,27.04
2022-07-27T16:28:43.065Z,26.98
2022-07-27T16:31:14.484Z,27.02
2022-07-27T16:33:45.103Z,26.51
2022-07-27T16:36:13.331Z,26.36
2022-07-27T16:38:49.927Z,26.44
2022-07-27T16:41:22.024Z,26.38
2022-07-27T16:43:50.184Z,26.26
2022-07-27T16:46:18.377Z,26.23
2022-07-27T16:48:47.274Z,26.12
2022-07-27T16:51:16.336Z,26.34
2022-07-27T16:53:48.494Z,26.56
2022-07-27T16:56:18.169Z,26.19
2022-07-27T16:58:46.366Z,25.74
2022-07-27T17:01:22.277Z,25.45
2022-07-27T17:03:57.411Z,25.43
2022-07-27T17:06:27.054Z,25.24
2022-07-27T17:08:55.433Z,25.00
2022-07-27T17:11:23.751Z,24.96
2022-07-27T17:13:58.814Z,25.09
2022-07-27T17:16:28.920Z,25.21
2022-07-27T17:18:57.239Z,25.35
2022-07-27T17:21:25.746Z,25.35
2022-07-27T17:23:53.941Z,25.38
2022-07-27T17:26:22.802Z,25.27
2022-07-27T17:28:53.717Z,25.11
2022-07-27T17:31:22.045Z,24.89
2022-07-27T17:33:51.414Z,24.57
2022-07-27T17:36:20.359Z,24.27
2022-07-27T17:38:50.055Z,24.00
2022-07-27T17:41:24.038Z,23.93
2022-07-27T17:43:54.880Z,23.96
2022-07-27T17:46:24.989Z,23.86
2022-07-27T17:48:54.466Z,23.78
2022-07-27T17:51:25.565Z,23.65
2022-07-27T17:53:54.298Z,23.63
2022-07-27T17:56:22.485Z,23.58
2022-07-27T17:58:50.761Z,23.61
2022-07-27T18:01:46.466Z,23.49
2022-07-27T18:04:07.892Z,23.25
2022-07-27T18:06:36.483Z,23.28
2022-07-27T18:09:04.496Z,23.24
2022-07-27T18:11:32.465Z,23.29
2022-07-27T18:14:00.558Z,23.29
2022-07-27T18:16:28.840Z,23.27
2022-07-27T18:18:56.957Z,23.24
2022-07-27T18:21:24.996Z,23.29
2022-07-27T18:23:53.645Z,23.31
2022-07-27T18:26:22.459Z,23.20
2022-07-27T18:28:55.014Z,23.12
2022-07-27T18:31:24.924Z,23.05
2022-07-27T18:33:54.996Z,22.98
2022-07-27T18:36:23.264Z,22.93
2022-07-27T18:38:51.501Z,22.79
2022-07-27T18:41:19.656Z,22.69
2022-07-27T18:43:53.991Z,22.57
2022-07-27T18:46:23.169Z,22.49
2022-07-27T18:48:51.290Z,22.39
2022-07-27T18:51:22.133Z,22.31
2022-07-27T18:53:50.149Z,22.24
2022-07-27T18:56:18.299Z,22.17
2022-07-27T18:58:47.036Z,22.09
2022-07-27T19:01:15.215Z,21.97
2022-07-27T19:03:43.496Z,21.86
2022-07-27T19:06:12.619Z,21.71
2022-07-27T19:08:46.829Z,21.56
2022-07-27T19:11:15.611Z,21.42
2022-07-27T19:13:45.683Z,21.23
2022-07-27T19:16:13.707Z,21.09
2022-07-27T19:18:42.157Z,20.94
2022-07-27T19:21:10.107Z,20.80
2022-07-27T19:23:38.087Z,20.66
2022-07-27T19:26:07.074Z,20.53
2022-07-27T19:28:35.167Z,20.41
2022-07-27T19:31:03.175Z,20.27
2022-07-27T19:33:32.299Z,20.15
2022-07-27T19:36:00.459Z,20.06
2022-07-27T19:38:28.550Z,19.94
2022-07-27T19:40:57.177Z,19.85
2022-07-27T19:43:25.290Z,19.74
2022-07-27T19:45:53.357Z,19.65
2022-07-27T19:48:22.641Z,19.58
2022-07-27T19:50:50.755Z,19.50
2022-07-27T19:53:18.882Z,19.39
2022-07-27T19:55:47.025Z,19.32
2022-07-27T19:58:15.795Z,19.26
2022-07-27T20:00:46.503Z,19.19
2022-07-27T20:03:14.799Z,19.12
2022-07-27T20:05:42.793Z,19.07
2022-07-27T20:08:10.953Z,19.04
2022-07-27T20:10:40.140Z,19.04
2022-07-27T20:13:09.373Z,19.14
2022-07-27T20:15:37.510Z,19.25
2022-07-27T20:18:05.606Z,19.41
2022-07-27T20:20:33.722Z,19.55
2022-07-27T20:23:01.691Z,19.67
2022-07-27T20:25:29.679Z,19.78
2022-07-27T20:27:58.079Z,19.84
2022-07-27T20:30:27.030Z,19.89
2022-07-27T20:32:55.139Z,19.89
2022-07-27T20:35:23.738Z,19.91
2022-07-27T20:38:03.595Z,19.92
2022-07-27T20:40:32.185Z,19.89
2022-07-27T20:43:00.271Z,19.83
2022-07-27T20:45:28.553Z,19.79
2022-07-27T20:47:57.464Z,19.71
2022-07-27T20:50:25.700Z,19.62
2022-07-27T20:52:53.731Z,19.51
2022-07-27T20:55:21.813Z,19.40
2022-07-27T20:57:50.048Z,19.30
2022-07-27T21:00:19.431Z,19.22
2022-07-27T21:02:48.643Z,19.13
2022-07-27T21:05:18.774Z,19.06
2022-07-27T21:07:46.750Z,18.96
2022-07-27T21:10:14.750Z,18.89
2022-07-27T21:12:44.233Z,18.82
2022-07-27T21:15:13.616Z,18.76
2022-07-27T21:17:42.962Z,18.70
2022-07-27T21:20:11.666Z,18.66
2022-07-27T21:22:39.822Z,18.58
2022-07-27T21:25:08.249Z,18.46
2022-07-27T21:27:36.539Z,18.37
2022-07-27T21:30:07.572Z,18.29
2022-07-27T21:32:35.749Z,18.20
2022-07-27T21:35:06.902Z,18.10
2022-07-27T21:37:35.767Z,18.03
2022-07-27T21:40:03.992Z,17.95
2022-07-27T21:42:33.333Z,17.90
2022-07-27T21:45:01.817Z,17.86
2022-07-27T21:47:31.537Z,17.82
2022-07-27T21:49:59.761Z,17.77
2022-07-27T21:52:27.847Z,17.78
2022-07-27T21:54:55.872Z,17.70
2022-07-27T21:57:24.170Z,17.65
2022-07-27T21:59:52.257Z,17.59
2022-07-27T22:02:20.319Z,17.50
2022-07-27T22:04:48.393Z,17.44
2022-07-27T22:07:19.513Z,17.39
2022-07-27T22:09:49.265Z,17.33
2022-07-27T22:12:17.337Z,17.27
2022-07-27T22:14:45.360Z,17.20
2022-07-27T22:17:13.380Z,17.15
2022-07-27T22:19:41.600Z,17.07
2022-07-27T22:22:09.679Z,17.01
2022-07-27T22:24:38.278Z,16.97
2022-07-27T22:27:06.878Z,16.92
2022-07-27T22:29:37.921Z,16.87
2022-07-27T22:32:07.151Z,16.83
2022-07-27T22:34:35.116Z,16.75
2022-07-27T22:37:03.686Z,16.68
2022-07-27T22:39:31.838Z,16.63
2022-07-27T22:41:59.995Z,16.58
2022-07-27T22:44:28.119Z,16.49
2022-07-27T22:46:56.316Z,16.48
2022-07-27T22:49:24.637Z,16.45
2022-07-27T22:51:54.306Z,16.39
2022-07-27T22:54:23.021Z,16.33
2022-07-27T22:56:51.021Z,16.23
2022-07-27T22:59:19.625Z,16.16
2022-07-27T23:01:48.395Z,16.10
2022-07-27T23:04:17.685Z,16.07
2022-07-27T23:06:47.467Z,16.06
2022-07-27T23:09:16.420Z,16.05
2022-07-27T23:11:45.268Z,16.00
2022-07-27T23:14:13.905Z,15.94
2022-07-27T23:16:43.976Z,15.88
2022-07-27T23:19:12.116Z,15.82
2022-07-27T23:22:10.883Z,15.78
2022-07-27T23:24:46.475Z,15.71
2022-07-27T23:27:14.299Z,15.64
2022-07-27T23:29:44.710Z,15.58
2022-07-27T23:32:12.711Z,15.56
2022-07-27T23:34:40.711Z,15.50
2022-07-27T23:37:08.801Z,15.45
2022-07-27T23:39:36.785Z,15.39
2022-07-27T23:42:04.905Z,15.36
2022-07-27T23:44:32.968Z,15.34
2022-07-27T23:47:01.385Z,15.27
2022-07-27T23:49:29.444Z,15.20
2022-07-27T23:51:57.557Z,15.11
2022-07-27T23:54:25.776Z,15.05
2022-07-27T23:56:53.939Z,14.98
2022-07-27T23:59:21.994Z,14.93
